Time;durP1;ratioP1;P1;durP2;ratioP2;P2;SDS_P1;SDS_P2;PMS_P1;PMS_P2;Temp;Humidity;BMP_temperature;BMP_pressure;BME280_temperature;BME280_humidity;BME280_pressure;Samples;Min_cycle;Max_cycle;Signal;HPM_P1;HPM_P2
2021/04/17 00:02:01;;;;;;;8.95;8.05;;;;;;;5.48;73.95;100053.50;4956423;28;20231;-71
2021/04/17 00:04:28;;;;;;;9.68;8.68;;;;;;;5.60;73.37;100053.09;4955699;29;20318;-71
2021/04/17 00:06:55;;;;;;;9.10;8.07;;;;;;;5.76;72.97;100045.50;4956080;28;20196;-71
2021/04/17 00:09:24;;;;;;;9.50;8.02;;;;;;;5.76;72.26;100043.69;4956120;28;20691;-73
2021/04/17 00:11:52;;;;;;;12.77;8.93;;;;;;;5.77;72.16;100044.59;4955696;28;20211;-72
2021/04/17 00:14:23;;;;;;;8.20;7.40;;;;;;;6.00;71.52;100043.88;4956155;28;20200;-72
2021/04/17 00:16:50;;;;;;;8.43;7.68;;;;;;;6.05;70.80;100039.25;4955723;28;20228;-72
2021/04/17 00:19:16;;;;;;;9.05;8.07;;;;;;;5.95;70.99;100032.47;4955674;28;20276;-71
2021/04/17 00:21:42;;;;;;;10.77;9.68;;;;;;;5.93;71.13;100040.50;4955973;28;20626;-72
2021/04/17 00:24:09;;;;;;;9.45;7.97;;;;;;;6.08;70.68;100039.16;4956056;28;20616;-72
2021/04/17 00:26:36;;;;;;;12.00;8.93;;;;;;;6.00;70.51;100036.72;4955596;28;20197;-73
2021/04/17 00:29:04;;;;;;;9.38;8.15;;;;;;;6.10;70.52;100029.28;4955921;28;20288;-72
2021/04/17 00:31:31;;;;;;;10.57;8.25;;;;;;;6.04;70.47;100022.34;4954546;28;20754;-72
2021/04/17 00:33:57;;;;;;;9.40;7.95;;;;;;;6.08;70.42;100020.44;4955418;28;20205;-72
2021/04/17 00:36:23;;;;;;;15.10;8.52;;;;;;;5.70;71.63;100021.63;4955360;28;20279;-72
2021/04/17 00:38:49;;;;;;;11.98;8.15;;;;;;;5.71;71.99;100018.06;4955593;28;20707;-72
2021/04/17 00:41:16;;;;;;;9.93;7.82;;;;;;;5.63;72.46;100021.84;4955302;28;20212;-72
2021/04/17 00:43:42;;;;;;;10.70;7.40;;;;;;;5.51;73.16;100019.53;4955586;28;20192;-72
2021/04/17 00:46:09;;;;;;;9.32;7.35;;;;;;;5.38;73.85;100010.13;4955563;28;20295;-72
2021/04/17 00:48:36;;;;;;;8.43;7.45;;;;;;;5.42;74.02;100011.81;4955405;28;20189;-71
2021/04/17 00:51:02;;;;;;;9.25;7.05;;;;;;;5.37;74.02;100014.63;4955335;28;20216;-72
2021/04/17 00:53:29;;;;;;;8.70;7.13;;;;;;;5.25;74.61;100012.31;4955068;28;20185;-70
2021/04/17 00:55:55;;;;;;;10.57;8.55;;;;;;;5.44;73.93;100009.97;4954982;28;20291;-72
2021/04/17 00:58:21;;;;;;;8.57;7.68;;;;;;;5.28;74.46;100014.03;4955324;28;20323;-72
2021/04/17 01:00:47;;;;;;;11.45;8.73;;;;;;;5.13;74.93;100016.25;4954844;28;20200;-72
2021/04/17 01:03:21;;;;;;;9.88;8.63;;;;;;;4.89;75.99;100016.94;4954947;28;20327;-72
2021/04/17 01:05:51;;;;;;;10.23;8.32;;;;;;;4.77;76.34;100012.78;4955211;28;20555;-72
2021/04/17 01:08:26;;;;;;;9.88;8.48;;;;;;;4.95;75.89;100011.41;4955238;28;20212;-72
2021/04/17 01:10:57;;;;;;;11.13;9.20;;;;;;;4.96;75.64;100007.84;4954674;28;20375;-71
2021/04/17 01:13:24;;;;;;;13.98;10.20;;;;;;;4.94;76.91;100001.66;4954741;28;20271;-71
2021/04/17 01:15:51;;;;;;;10.25;9.02;;;;;;;4.81;76.36;100009.13;4954827;28;20216;-72
2021/04/17 01:18:22;;;;;;;10.63;9.45;;;;;;;4.68;76.89;100011.28;4954866;28;20366;-72
2021/04/17 01:20:51;;;;;;;10.93;8.85;;;;;;;4.78;76.75;99996.75;4954765;28;20624;-71
2021/04/17 01:23:24;;;;;;;10.48;9.52;;;;;;;4.89;76.00;99996.47;4955127;28;20283;-72
2021/04/17 01:25:54;;;;;;;13.00;9.02;;;;;;;4.73;76.56;99996.03;4954579;28;20271;-72
2021/04/17 01:28:23;;;;;;;12.15;9.65;;;;;;;4.54;77.56;99992.97;4955009;28;20197;-72
2021/04/17 01:30:52;;;;;;;10.82;9.32;;;;;;;4.52;77.70;99986.81;4954596;28;20216;-71
2021/04/17 01:33:22;;;;;;;9.60;8.63;;;;;;;4.55;77.58;99996.53;4954563;28;20247;-71
2021/04/17 01:35:50;;;;;;;12.55;9.73;;;;;;;4.50;77.63;99990.41;4954419;28;20282;-71
2021/04/17 01:38:22;;;;;;;12.55;9.88;;;;;;;4.33;78.39;99997.09;4954833;28;20185;-72
2021/04/17 01:40:51;;;;;;;13.18;8.65;;;;;;;4.11;79.54;99996.75;4954167;28;20197;-71
2021/04/17 01:43:24;;;;;;;11.45;9.70;;;;;;;3.98;79.93;99990.00;4954684;28;20625;-72
2021/04/17 01:45:52;;;;;;;10.27;8.38;;;;;;;3.87;80.78;99995.59;4954674;28;20258;-71
2021/04/17 01:48:20;;;;;;;12.40;9.75;;;;;;;3.99;80.41;99988.22;4954625;28;20295;-72
2021/04/17 01:50:47;;;;;;;11.10;10.07;;;;;;;3.86;80.87;99988.50;4954252;28;20222;-71
2021/04/17 01:53:17;;;;;;;10.90;8.93;;;;;;;3.75;80.99;99985.22;4954104;28;20293;-71
2021/04/17 01:55:45;;;;;;;13.30;10.00;;;;;;;3.74;81.25;99976.34;4954529;28;20213;-71
2021/04/17 01:58:12;;;;;;;10.55;8.90;;;;;;;3.82;81.01;99973.53;4954389;28;20674;-71
2021/04/17 02:00:39;;;;;;;10.60;9.32;;;;;;;3.69;81.23;99980.94;4954019;28;20340;-72
2021/04/17 02:03:06;;;;;;;10.48;9.35;;;;;;;3.65;81.49;99976.59;4954219;28;20588;-72
2021/04/17 02:05:32;;;;;;;10.48;8.50;;;;;;;3.69;81.37;99985.38;4953841;28;20277;-71
2021/04/17 02:07:59;;;;;;;12.25;9.30;;;;;;;3.72;80.94;99980.84;4954152;28;20299;-71
2021/04/17 02:10:26;;;;;;;12.18;10.15;;;;;;;3.58;81.75;99979.44;4953917;28;20208;-71
2021/04/17 02:12:54;;;;;;;10.98;9.80;;;;;;;3.67;81.53;99976.56;4953920;29;20232;-70
2021/04/17 02:15:21;;;;;;;10.27;9.00;;;;;;;3.88;80.37;99980.47;4954302;28;20675;-71
2021/04/17 02:17:54;;;;;;;11.00;9.40;;;;;;;3.72;80.58;99972.00;4953812;28;20242;-72
2021/04/17 02:20:31;;;;;;;10.52;9.40;;;;;;;3.51;81.65;99979.56;4954061;28;20605;-71
2021/04/17 02:22:57;;;;;;;10.20;9.13;;;;;;;3.52;81.82;99965.34;4954132;28;20274;-70
2021/04/17 02:25:24;;;;;;;10.82;9.73;;;;;;;3.54;81.82;99979.50;4954138;28;20218;-72
2021/04/17 02:27:51;;;;;;;12.80;10.20;;;;;;;3.55;81.58;99980.41;4953752;28;20301;-72
2021/04/17 02:30:17;;;;;;;11.63;9.77;;;;;;;3.54;81.74;99978.63;4953634;28;20252;-71
2021/04/17 02:32:44;;;;;;;10.35;8.43;;;;;;;3.59;81.39;99978.50;4953955;28;20648;-72
2021/04/17 02:35:12;;;;;;;10.73;8.65;;;;;;;3.74;80.76;99978.16;4953713;28;20188;-72
2021/04/17 02:37:39;;;;;;;10.35;8.55;;;;;;;3.61;80.86;99972.25;4953533;28;20291;-72
2021/04/17 02:40:06;;;;;;;11.80;9.18;;;;;;;3.43;81.50;99972.66;4954028;28;20196;-71
2021/04/17 02:42:32;;;;;;;12.05;9.50;;;;;;;3.33;82.08;99975.53;4954054;28;20199;-72
2021/04/17 02:44:59;;;;;;;11.48;8.85;;;;;;;3.25;82.66;99971.28;4954049;28;20214;-71
2021/04/17 02:47:25;;;;;;;11.50;10.13;;;;;;;3.16;83.00;99975.03;4953723;28;20183;-71
2021/04/17 02:49:53;;;;;;;10.65;9.60;;;;;;;3.09;83.73;99974.28;4954087;28;20219;-72
2021/04/17 02:52:20;;;;;;;10.15;9.15;;;;;;;3.08;83.60;99974.34;4953810;28;20209;-72
2021/04/17 02:54:47;;;;;;;11.75;9.77;;;;;;;3.01;83.85;99970.94;4955032;28;20549;-71
2021/04/17 02:57:13;;;;;;;11.80;10.05;;;;;;;2.88;84.27;99972.97;4957310;28;20244;-71
2021/04/17 02:59:39;;;;;;;11.00;9.80;;;;;;;2.80;84.96;99974.03;4957705;28;20268;-72
2021/04/17 03:02:05;;;;;;;12.82;10.18;;;;;;;2.91;84.27;99972.91;4957414;28;20211;-72
2021/04/17 03:04:31;;;;;;;11.05;9.38;;;;;;;2.80;84.88;99979.34;4957840;28;20283;-70
2021/04/17 03:06:58;;;;;;;10.75;9.65;;;;;;;2.89;84.37;99972.06;4958021;28;20623;-72
2021/04/17 03:09:28;;;;;;;10.30;8.35;;;;;;;2.96;84.03;99972.78;4957686;28;20240;-71
2021/04/17 03:11:54;;;;;;;13.43;9.82;;;;;;;2.92;84.00;99981.78;4957368;28;20284;-71
2021/04/17 03:14:20;;;;;;;13.25;10.75;;;;;;;2.94;83.89;99977.31;4957410;28;20215;-72
2021/04/17 03:16:46;;;;;;;10.55;9.13;;;;;;;2.89;84.25;99973.84;4957287;28;20213;-71
2021/04/17 03:19:12;;;;;;;10.32;9.30;;;;;;;2.90;84.05;99975.59;4957499;28;20189;-73
2021/04/17 03:21:38;;;;;;;12.45;9.88;;;;;;;2.92;84.02;99969.34;4957518;28;20620;-72
2021/04/17 03:24:05;;;;;;;11.30;10.10;;;;;;;2.88;84.26;99966.78;4957224;28;20189;-72
2021/04/17 03:26:33;;;;;;;12.38;10.43;;;;;;;2.89;83.98;99963.19;4957182;28;20197;-73
2021/04/17 03:28:59;;;;;;;11.88;10.48;;;;;;;2.92;83.60;99965.81;4956733;28;20243;-72
2021/04/17 03:31:25;;;;;;;11.07;9.63;;;;;;;3.00;83.81;99966.50;4956497;28;20314;-72
2021/04/17 03:33:51;;;;;;;10.68;9.63;;;;;;;2.78;84.16;99965.19;4956485;28;20282;-72
2021/04/17 03:36:18;;;;;;;10.63;9.52;;;;;;;2.86;84.02;99969.47;4956919;28;20214;-72
2021/04/17 03:38:44;;;;;;;11.07;9.85;;;;;;;2.87;83.75;99970.34;4956804;28;20585;-72
2021/04/17 03:41:10;;;;;;;11.05;9.18;;;;;;;3.01;83.51;99968.28;4956903;28;20273;-72
2021/04/17 03:43:37;;;;;;;11.63;10.10;;;;;;;3.00;83.10;99966.50;4956364;28;20287;-72
2021/04/17 03:46:04;;;;;;;13.30;10.02;;;;;;;2.83;84.25;99969.53;4956546;28;20213;-72
2021/04/17 03:48:30;;;;;;;19.85;10.05;;;;;;;2.82;84.52;99967.75;4956220;28;20232;-71
2021/04/17 03:50:56;;;;;;;11.82;10.27;;;;;;;3.13;83.17;99973.31;4956437;28;20684;-72
2021/04/17 03:53:23;;;;;;;11.80;9.70;;;;;;;3.07;82.69;99968.13;4956136;28;20222;-72
2021/04/17 03:55:49;;;;;;;10.70;9.60;;;;;;;3.23;82.16;99965.13;4956504;28;20189;-72
2021/04/17 03:58:15;;;;;;;11.60;8.85;;;;;;;3.09;82.34;99973.41;4955934;28;20252;-72
2021/04/17 04:00:42;;;;;;;16.58;11.07;;;;;;;3.12;82.26;99973.34;4956140;28;20193;-71
2021/04/17 04:03:08;;;;;;;14.60;10.38;;;;;;;2.90;83.45;99971.16;4954014;28;20261;-72
2021/04/17 04:05:34;;;;;;;12.15;10.35;;;;;;;2.89;83.86;99979.16;4955566;28;20632;-72
2021/04/17 04:08:01;;;;;;;14.65;10.98;;;;;;;2.86;83.89;99984.56;4955761;28;20238;-71
2021/04/17 04:10:27;;;;;;;15.23;11.05;;;;;;;2.81;83.97;99975.81;4956084;28;20244;-72
2021/04/17 04:12:53;;;;;;;15.43;11.40;;;;;;;2.80;84.27;99969.59;4956066;28;20622;-71
2021/04/17 04:15:19;;;;;;;18.38;11.20;;;;;;;2.78;84.11;99978.50;4956148;28;20247;-73
2021/04/17 04:17:46;;;;;;;13.70;10.77;;;;;;;2.60;84.81;99987.72;4955739;28;20695;-72
2021/04/17 04:20:13;;;;;;;14.10;10.65;;;;;;;2.59;85.13;99975.34;4955705;28;20552;-71
2021/04/17 04:22:40;;;;;;;14.50;10.63;;;;;;;2.79;84.83;99988.25;4955788;28;20189;-70
2021/04/17 04:25:08;;;;;;;14.05;11.02;;;;;;;3.04;83.43;99986.81;4956015;28;20190;-73
2021/04/17 04:27:35;;;;;;;13.95;10.77;;;;;;;2.82;83.71;99990.84;4955609;28;20204;-72
2021/04/17 04:30:02;;;;;;;13.38;11.20;;;;;;;2.78;84.17;99990.03;4955389;28;20270;-72
2021/04/17 04:32:28;;;;;;;12.90;10.60;;;;;;;2.74;84.59;99991.00;4955533;28;20220;-72
2021/04/17 04:34:55;;;;;;;12.43;10.43;;;;;;;2.80;84.73;99990.00;4955807;28;20649;-72
2021/04/17 04:37:22;;;;;;;12.38;11.07;;;;;;;2.86;84.04;99995.19;4955496;28;20271;-74
2021/04/17 04:39:48;;;;;;;13.50;10.32;;;;;;;2.87;84.31;99991.59;4955215;28;20211;-72
2021/04/17 04:42:14;;;;;;;13.65;10.70;;;;;;;2.93;83.72;99980.84;4955344;28;20189;-73
2021/04/17 04:44:40;;;;;;;15.95;10.63;;;;;;;2.91;83.76;99985.31;4955500;28;20208;-73
2021/04/17 04:47:07;;;;;;;16.08;11.35;;;;;;;2.96;83.63;99990.53;4955455;28;20234;-72
2021/04/17 04:49:33;;;;;;;18.35;11.90;;;;;;;3.17;82.95;99991.91;4955217;28;20191;-71
2021/04/17 04:52:00;;;;;;;12.57;11.27;;;;;;;3.17;82.64;99990.09;4955135;28;20228;-73
2021/04/17 04:54:26;;;;;;;13.45;10.40;;;;;;;3.12;82.17;99983.97;4955512;28;20226;-73
2021/04/17 04:56:52;;;;;;;13.63;10.90;;;;;;;3.12;82.55;99986.66;4955625;28;20555;-71
2021/04/17 04:59:18;;;;;;;14.38;10.75;;;;;;;3.01;83.20;99994.88;4955535;28;20212;-72
2021/04/17 05:01:45;;;;;;;15.05;11.20;;;;;;;3.22;82.29;99990.88;4955148;28;20261;-72
2021/04/17 05:04:11;;;;;;;13.95;11.05;;;;;;;2.90;83.00;99991.56;4954939;28;20277;-73
2021/04/17 05:06:37;;;;;;;13.93;10.75;;;;;;;2.77;83.86;99995.38;4954912;28;20200;-73
2021/04/17 05:09:06;;;;;;;15.13;10.85;;;;;;;2.83;83.86;99990.81;4955004;28;20256;-72
2021/04/17 05:11:33;;;;;;;11.85;10.40;;;;;;;2.97;83.73;99994.97;4955188;28;20240;-72
2021/04/17 05:13:59;;;;;;;12.20;10.45;;;;;;;3.13;82.54;99983.09;4955095;28;20696;-71
2021/04/17 05:16:25;;;;;;;15.48;12.20;;;;;;;3.33;82.06;99988.84;4955141;28;20232;-71
2021/04/17 05:18:51;;;;;;;14.00;11.05;;;;;;;3.57;80.40;99985.66;4954415;28;20190;-72
2021/04/17 05:21:18;;;;;;;11.57;10.10;;;;;;;3.57;80.44;99983.00;4955015;28;20255;-73
2021/04/17 05:23:44;;;;;;;15.10;11.43;;;;;;;3.65;79.91;99989.03;4954915;28;20648;-72
2021/04/17 05:26:11;;;;;;;13.27;11.00;;;;;;;3.30;81.21;99985.38;4955101;28;20193;-71
2021/04/17 05:28:37;;;;;;;13.55;10.63;;;;;;;3.12;82.53;100003.50;4953110;28;20673;-71
2021/04/17 05:31:03;;;;;;;14.82;10.90;;;;;;;3.12;82.65;99997.28;4954962;29;20241;-72
2021/04/17 05:33:29;;;;;;;15.27;11.80;;;;;;;3.24;82.32;99997.03;4955046;29;20229;-72
2021/04/17 05:35:56;;;;;;;13.13;11.68;;;;;;;3.52;81.98;99996.41;4954545;29;20330;-71
2021/04/17 05:38:22;;;;;;;13.23;10.52;;;;;;;3.87;80.86;100000.94;4954433;28;20208;-72
2021/04/17 05:40:48;;;;;;;12.18;10.68;;;;;;;4.24;78.49;100000.00;4954748;29;20621;-72
2021/04/17 05:43:15;;;;;;;11.35;9.90;;;;;;;4.23;78.11;100002.69;4954859;29;20525;-72
2021/04/17 05:45:41;;;;;;;12.40;11.10;;;;;;;4.22;77.94;100001.81;4954868;29;20267;-71
2021/04/17 05:48:08;;;;;;;13.35;10.85;;;;;;;4.12;78.38;99998.53;4954324;29;20217;-72
2021/04/17 05:50:34;;;;;;;13.80;10.73;;;;;;;4.46;77.15;99997.66;4954651;28;20672;-72
2021/04/17 05:53:00;;;;;;;10.85;9.75;;;;;;;4.36;77.09;99996.13;4954524;29;20228;-72
2021/04/17 05:55:26;;;;;;;14.30;11.40;;;;;;;4.46;77.00;100000.31;4954131;29;20207;-72
2021/04/17 05:57:52;;;;;;;12.52;11.20;;;;;;;4.76;76.07;100003.06;4954403;29;20298;-72
2021/04/17 06:00:21;;;;;;;12.93;10.20;;;;;;;4.94;75.11;99991.00;4954556;29;20579;-72
2021/04/17 06:02:47;;;;;;;15.18;10.48;;;;;;;4.95;74.65;99996.28;4953942;29;20769;-72
2021/04/17 06:05:14;;;;;;;14.50;11.02;;;;;;;4.89;74.47;99995.59;4961265;28;20366;-72
2021/04/17 06:07:41;;;;;;;12.80;10.80;;;;;;;5.01;74.35;99989.88;4973356;28;20198;-72
2021/04/17 06:10:09;;;;;;;12.40;11.20;;;;;;;4.99;74.26;99997.06;4973118;28;20205;-72
2021/04/17 06:12:35;;;;;;;12.50;10.40;;;;;;;5.09;74.12;99993.22;4973272;28;20207;-71
2021/04/17 06:15:01;;;;;;;15.93;10.82;;;;;;;5.26;73.44;99999.84;4968289;28;20278;-72
2021/04/17 06:17:28;;;;;;;12.38;10.70;;;;;;;5.35;73.27;99992.41;4953413;29;20200;-72
2021/04/17 06:19:54;;;;;;;16.67;12.60;;;;;;;5.29;72.92;99997.06;4953494;28;20286;-72
2021/04/17 06:22:20;;;;;;;12.20;10.50;;;;;;;5.66;71.71;99998.63;4953531;29;20258;-72
2021/04/17 06:24:46;;;;;;;11.88;10.65;;;;;;;5.82;71.13;99992.72;4953841;29;20295;-72
2021/04/17 06:27:13;;;;;;;12.05;10.80;;;;;;;5.74;71.28;99997.44;4953153;29;20659;-72
2021/04/17 06:29:40;;;;;;;12.60;11.30;;;;;;;5.97;70.86;100002.09;4952481;28;20208;-72
2021/04/17 06:32:06;;;;;;;11.55;9.95;;;;;;;6.17;69.33;99992.50;4953443;28;20213;-73
2021/04/17 06:34:34;;;;;;;10.73;9.63;;;;;;;6.38;68.91;99993.59;4953905;28;20643;-72
2021/04/17 06:37:00;;;;;;;12.02;10.27;;;;;;;6.63;68.35;99998.97;4953837;29;20210;-73
2021/04/17 06:39:26;;;;;;;10.98;9.82;;;;;;;6.78;67.14;99984.13;4953976;28;20275;-72
2021/04/17 06:41:53;;;;;;;11.90;10.02;;;;;;;7.04;66.72;99983.19;4953494;29;20297;-72
2021/04/17 06:44:22;;;;;;;11.10;10.00;;;;;;;6.89;66.56;99985.50;4953548;29;20187;-71
2021/04/17 06:46:50;;;;;;;16.40;10.23;;;;;;;6.66;66.98;99996.16;4953869;29;20579;-72
2021/04/17 06:49:16;;;;;;;12.88;10.40;;;;;;;6.81;67.15;99987.59;4953812;28;20188;-71
2021/04/17 06:51:46;;;;;;;13.15;11.15;;;;;;;6.85;66.66;99988.34;4953458;28;20252;-72
2021/04/17 06:54:19;;;;;;;12.15;10.60;;;;;;;6.59;67.16;99990.16;4953708;29;20212;-73
2021/04/17 06:56:47;;;;;;;14.13;11.20;;;;;;;6.67;67.82;99987.19;4953757;28;20197;-72
2021/04/17 06:59:14;;;;;;;13.68;10.95;;;;;;;6.78;67.08;99985.00;4953452;29;20196;-72
2021/04/17 07:01:41;;;;;;;12.38;11.18;;;;;;;7.20;66.20;99988.84;4953372;29;20240;-72
2021/04/17 07:04:07;;;;;;;15.98;12.13;;;;;;;7.71;64.44;99985.94;4953070;28;20319;-72
2021/04/17 07:06:33;;;;;;;12.45;9.55;;;;;;;8.10;61.79;99977.19;4953539;29;20295;-73
2021/04/17 07:09:01;;;;;;;12.05;9.70;;;;;;;8.31;61.01;99985.25;4953673;28;20582;-71
2021/04/17 07:11:27;;;;;;;13.40;9.63;;;;;;;8.53;60.54;99977.19;4953614;28;20675;-73
2021/04/17 07:14:13;;;;;;;11.93;9.70;;;;;;;8.59;59.68;99978.72;4953533;29;20189;-72
2021/04/17 07:16:56;;;;;;;11.18;9.98;;;;;;;8.51;60.40;99981.75;4953344;29;20190;-73
2021/04/17 07:19:23;;;;;;;10.70;9.60;;;;;;;8.66;59.91;99975.72;4953385;29;20747;-72
2021/04/17 07:21:50;;;;;;;11.60;9.60;;;;;;;8.84;58.95;99975.81;4953281;29;20193;-72
2021/04/17 07:24:27;;;;;;;14.23;9.02;;;;;;;8.97;58.75;99975.19;4952816;29;20215;-73
2021/04/17 07:26:54;;;;;;;12.27;10.98;;;;;;;9.34;57.64;99978.03;4952759;28;20313;-73
2021/04/17 07:29:20;;;;;;;11.07;9.98;;;;;;;9.48;56.80;99975.53;4953385;29;20200;-72
2021/04/17 07:31:54;;;;;;;9.75;8.85;;;;;;;9.92;55.29;99977.00;4952724;28;20227;-73
2021/04/17 07:34:23;;;;;;;10.52;9.02;;;;;;;10.11;54.28;99980.53;4953282;29;20208;-72
2021/04/17 07:36:53;;;;;;;10.82;9.32;;;;;;;10.38;53.04;99972.91;4953227;29;20294;-72
2021/04/17 07:39:38;;;;;;;9.55;8.63;;;;;;;10.49;52.51;99979.56;4952930;28;20213;-72
2021/04/17 07:42:09;;;;;;;10.70;9.60;;;;;;;10.72;51.32;99967.56;4956038;28;20214;-71
2021/04/17 07:44:41;;;;;;;11.02;9.93;;;;;;;10.86;50.92;99967.72;4956221;29;20661;-73
2021/04/17 07:47:08;;;;;;;10.10;9.00;;;;;;;10.96;50.32;99966.25;4956569;29;20189;-73
2021/04/17 07:49:35;;;;;;;9.93;7.25;;;;;;;10.93;49.98;99965.59;4956107;28;20329;-72
2021/04/17 07:52:08;;;;;;;12.30;9.63;;;;;;;11.14;49.02;99956.31;4956255;29;20209;-73
2021/04/17 07:54:34;;;;;;;9.35;7.53;;;;;;;11.37;48.37;99963.13;4956686;29;20188;-72
2021/04/17 07:57:06;;;;;;;9.23;7.63;;;;;;;11.35;48.05;99961.47;4956164;29;20204;-72
2021/04/17 07:59:34;;;;;;;10.40;9.30;;;;;;;11.29;48.26;99957.31;4956651;29;20635;-73
2021/04/17 08:02:02;;;;;;;6.30;5.70;;;;;;;11.29;45.18;99951.91;4956413;29;20200;-72
2021/04/17 08:04:29;;;;;;;7.57;6.35;;;;;;;11.26;46.16;99950.25;4956160;29;21053;-73
2021/04/17 08:06:57;;;;;;;8.73;5.63;;;;;;;11.39;45.36;99950.44;4956440;29;20310;-74
2021/04/17 08:09:26;;;;;;;8.27;6.20;;;;;;;11.35;44.68;99948.88;4956210;29;20212;-73
2021/04/17 08:11:54;;;;;;;10.90;7.95;;;;;;;11.19;44.71;99942.59;4955722;29;20212;-74
2021/04/17 08:14:24;;;;;;;6.30;5.47;;;;;;;11.16;44.32;99938.25;4955883;29;20216;-73
2021/04/17 08:16:51;;;;;;;6.82;5.93;;;;;;;11.22;44.42;99942.44;4955754;29;20628;-72
2021/04/17 08:19:19;;;;;;;10.73;7.20;;;;;;;11.32;44.24;99934.69;4953983;28;20209;-73
2021/04/17 08:21:47;;;;;;;8.38;6.45;;;;;;;11.54;43.83;99932.53;4955380;28;20228;-72
2021/04/17 08:24:14;;;;;;;10.38;7.22;;;;;;;11.62;43.71;99929.38;4952973;29;20196;-73
2021/04/17 08:26:41;;;;;;;9.43;6.75;;;;;;;11.58;44.24;99925.16;4955522;28;20211;-73
2021/04/17 08:29:08;;;;;;;9.05;6.60;;;;;;;11.69;43.71;99925.41;4955722;29;20294;-73
2021/04/17 08:31:37;;;;;;;6.35;5.55;;;;;;;11.96;42.38;99924.78;4954882;28;20231;-72
2021/04/17 08:34:19;;;;;;;7.00;6.30;;;;;;;11.77;42.95;99916.84;4955101;28;20244;-72
2021/04/17 08:36:48;;;;;;;7.40;6.00;;;;;;;11.54;43.78;99920.88;4955283;28;20562;-72
2021/04/17 08:39:43;;;;;;;9.38;6.05;;;;;;;11.84;43.39;99919.09;4951720;29;20532;-73
2021/04/17 08:42:11;;;;;;;7.05;6.35;;;;;;;11.80;43.20;99922.97;4953743;29;20251;-72
2021/04/17 08:44:39;;;;;;;7.30;5.97;;;;;;;11.22;44.05;99912.78;4947801;29;20205;-73
2021/04/17 08:47:09;;;;;;;7.45;6.20;;;;;;;11.10;44.02;99906.22;4951208;29;20631;-74
2021/04/17 08:49:37;;;;;;;5.65;5.07;;;;;;;11.54;42.94;99907.41;4952197;29;20204;-72
2021/04/17 08:52:23;;;;;;;7.63;6.00;;;;;;;11.73;42.24;99909.91;4954333;28;20228;-73
2021/04/17 08:55:12;;;;;;;5.97;5.07;;;;;;;12.03;42.26;99908.16;4954822;29;20279;-72
2021/04/17 08:57:38;;;;;;;7.28;5.63;;;;;;;11.54;41.67;99907.41;4957114;28;20201;-72
2021/04/17 09:00:08;;;;;;;6.38;5.63;;;;;;;11.61;41.68;99911.47;4950831;29;20192;-72
2021/04/17 09:02:45;;;;;;;7.70;5.75;;;;;;;11.75;41.47;99908.84;4954504;28;20676;-73
2021/04/17 09:05:14;;;;;;;7.10;5.57;;;;;;;11.83;41.36;99911.13;4952526;29;20204;-72
2021/04/17 09:07:43;;;;;;;6.05;5.22;;;;;;;11.83;41.01;99900.31;4954567;29;20239;-72
2021/04/17 09:10:31;;;;;;;7.28;5.78;;;;;;;11.79;40.52;99902.31;4954415;28;20632;-74
2021/04/17 09:13:31;;;;;;;6.45;5.68;;;;;;;12.19;39.82;99894.59;4954284;29;20192;-74
2021/04/17 09:15:58;;;;;;;9.43;5.60;;;;;;;12.27;39.87;99889.59;4952272;29;20200;-73
2021/04/17 09:18:45;;;;;;;9.10;5.30;;;;;;;12.01;40.38;99898.41;4954023;29;20201;-73
2021/04/17 09:21:33;;;;;;;6.50;5.38;;;;;;;12.08;40.29;99895.25;4956994;28;20252;-72
2021/04/17 09:24:00;;;;;;;8.38;4.75;;;;;;;12.28;39.47;99895.88;4952919;29;20337;-71
2021/04/17 09:26:47;;;;;;;8.23;5.03;;;;;;;12.35;38.46;99881.03;4953854;29;20200;-73
2021/04/17 09:29:25;;;;;;;7.65;5.10;;;;;;;12.62;38.04;99883.88;4950367;29;20259;-73
2021/04/17 09:31:52;;;;;;;13.25;5.07;;;;;;;12.31;37.40;99883.06;4953755;29;20240;-73
2021/04/17 09:34:20;;;;;;;5.35;4.50;;;;;;;11.74;37.01;99885.53;4957952;28;20646;-74
2021/04/17 09:36:51;;;;;;;5.53;5.00;;;;;;;11.21;39.20;99884.94;4954349;28;20207;-73
2021/04/17 09:39:25;;;;;;;6.95;5.72;;;;;;;11.66;38.68;99882.41;4948568;29;20251;-72
2021/04/17 09:41:52;;;;;;;6.45;4.20;;;;;;;11.97;38.03;99884.22;4953917;29;20193;-72
2021/04/17 09:44:19;;;;;;;5.38;4.88;;;;;;;11.42;38.37;99873.94;4953654;29;20196;-73
2021/04/17 09:46:46;;;;;;;5.88;5.00;;;;;;;11.27;39.19;99879.22;4949786;29;20204;-73
2021/04/17 09:49:34;;;;;;;4.43;4.03;;;;;;;11.52;38.86;99874.25;4953667;29;20189;-72
2021/04/17 09:52:00;;;;;;;7.30;4.95;;;;;;;11.63;38.30;99871.81;4951196;29;20220;-72
2021/04/17 09:54:28;;;;;;;5.75;4.60;;;;;;;11.96;37.43;99865.41;4950727;28;20523;-74
2021/04/17 09:56:55;;;;;;;8.00;5.75;;;;;;;11.67;37.91;99865.28;4953037;29;20223;-74
2021/04/17 09:59:22;;;;;;;12.38;4.55;;;;;;;11.75;37.41;99864.81;4953533;29;20314;-72
2021/04/17 10:01:52;;;;;;;5.60;4.15;;;;;;;11.98;36.73;99864.34;4953218;28;20196;-72
2021/04/17 10:04:19;;;;;;;5.30;4.10;;;;;;;12.00;37.02;99859.72;4951214;28;20259;-74
2021/04/17 10:06:55;;;;;;;6.15;4.30;;;;;;;11.98;36.07;99860.78;4952991;29;20223;-73
2021/04/17 10:09:21;;;;;;;5.30;4.15;;;;;;;11.96;36.53;99860.91;4951334;28;20602;-75
2021/04/17 10:11:49;;;;;;;5.80;4.10;;;;;;;12.32;35.38;99856.91;4953221;28;20240;-74
2021/04/17 10:14:17;;;;;;;5.20;4.28;;;;;;;12.50;35.23;99845.00;4958195;28;20283;-73
2021/04/17 10:16:45;;;;;;;4.35;3.67;;;;;;;12.91;35.23;99843.31;4973088;28;20209;-73
2021/04/17 10:19:14;;;;;;;4.85;4.13;;;;;;;13.49;33.92;99842.28;4973528;28;20223;-74
2021/04/17 10:21:41;;;;;;;6.97;4.30;;;;;;;13.67;34.58;99840.19;4971870;28;20318;-75
2021/04/17 10:24:33;;;;;;;4.25;3.85;;;;;;;13.41;34.13;99833.81;4973352;28;20220;-73
2021/04/17 10:27:03;;;;;;;4.65;4.25;;;;;;;13.59;34.41;99831.72;4963132;28;20204;-74
2021/04/17 10:29:36;;;;;;;7.55;4.10;;;;;;;13.55;34.37;99833.75;4973221;28;20593;-72
2021/04/17 10:32:05;;;;;;;4.53;3.80;;;;;;;13.94;34.35;99809.50;4965951;28;20224;-74
2021/04/17 10:34:31;;;;;;;4.55;4.15;;;;;;;13.67;34.07;99823.09;4953136;28;20204;-73
2021/04/17 10:37:02;;;;;;;7.15;4.22;;;;;;;12.87;35.05;99820.19;4954190;28;20208;-73
2021/04/17 10:39:29;;;;;;;5.75;4.47;;;;;;;12.64;34.52;99817.13;4943503;28;20209;-73
2021/04/17 10:42:05;;;;;;;6.03;4.22;;;;;;;13.02;35.56;99824.59;4943089;29;20221;-72
2021/04/17 10:44:31;;;;;;;4.50;4.07;;;;;;;13.12;35.78;99820.31;4943926;29;20269;-73
2021/04/17 10:46:59;;;;;;;5.97;4.82;;;;;;;13.48;35.09;99812.63;4944008;29;20201;-74
2021/04/17 10:49:30;;;;;;;4.28;3.85;;;;;;;13.89;33.54;99796.28;4945293;29;20275;-74
2021/04/17 10:51:56;;;;;;;4.88;3.33;;;;;;;13.47;32.62;99811.75;4949026;28;20232;-73
2021/04/17 10:54:23;;;;;;;4.07;3.67;;;;;;;13.56;32.91;99802.16;4953227;29;20569;-72
2021/04/17 10:56:59;;;;;;;4.90;3.67;;;;;;;14.04;33.14;99796.19;4954918;28;20751;-72
2021/04/17 10:59:26;;;;;;;3.70;3.40;;;;;;;14.23;32.81;99798.50;4951967;29;20655;-73
2021/04/17 11:01:52;;;;;;;5.38;3.75;;;;;;;14.14;32.91;99789.19;4952602;29;20275;-74
2021/04/17 11:04:18;;;;;;;5.75;4.05;;;;;;;14.50;32.28;99787.56;4953647;28;20292;-72
2021/04/17 11:06:47;;;;;;;4.10;3.47;;;;;;;14.30;32.56;99781.72;4952813;28;20233;-72
2021/04/17 11:09:16;;;;;;;4.18;3.78;;;;;;;14.49;32.51;99772.25;4952796;29;20244;-73
2021/04/17 11:11:53;;;;;;;4.82;4.30;;;;;;;14.70;32.40;99778.91;4953074;28;20254;-74
2021/04/17 11:14:22;;;;;;;4.10;3.55;;;;;;;14.77;32.71;99773.91;4951629;29;20212;-73
2021/04/17 11:16:51;;;;;;;7.35;4.25;;;;;;;15.13;31.85;99766.75;4956035;28;20240;-72
2021/04/17 11:19:25;;;;;;;3.75;3.45;;;;;;;15.07;32.03;99759.91;4956468;29;20213;-73
2021/04/17 11:22:09;;;;;;;4.05;3.58;;;;;;;15.00;32.36;99766.78;4953073;29;20338;-72
2021/04/17 11:24:36;;;;;;;5.10;4.20;;;;;;;15.25;31.88;99762.25;4954756;29;20207;-73
2021/04/17 11:27:02;;;;;;;4.63;4.22;;;;;;;14.72;32.35;99757.97;4956206;29;20268;-72
2021/04/17 11:29:29;;;;;;;8.23;3.83;;;;;;;14.32;33.35;99762.66;4956538;28;20223;-72
2021/04/17 11:31:56;;;;;;;5.13;3.85;;;;;;;13.50;34.00;99778.22;4959504;28;20680;-73
2021/04/17 11:34:22;;;;;;;7.50;3.50;;;;;;;13.67;34.17;99764.41;4956968;28;20206;-73
2021/04/17 11:36:49;;;;;;;4.60;3.50;;;;;;;13.66;33.96;99761.84;4951957;29;20200;-72